sensor_id;sensor_type;location;lat;lon;timestamp;P1;durP1;ratioP1;P2;durP2;ratioP2
4943;SDS011;2487;52.224;11.006;2022-10-17T00:00:35;0.60;;;0.60;;
4943;SDS011;2487;52.224;11.006;2022-10-17T00:03:01;4.80;;;1.00;;
4943;SDS011;2487;52.224;11.006;2022-10-17T00:05:27;7.80;;;0.90;;
4943;SDS011;2487;52.224;11.006;2022-10-17T00:07:52;12.47;;;0.90;;
4943;SDS011;2487;52.224;11.006;2022-10-17T00:10:19;12.77;;;0.90;;
4943;SDS011;2487;52.224;11.006;2022-10-17T00:12:45;12.27;;;0.90;;
4943;SDS011;2487;52.224;11.006;2022-10-17T00:15:14;11.20;;;0.90;;
4943;SDS011;2487;52.224;11.006;2022-10-17T00:17:40;12.77;;;0.90;;
4943;SDS011;2487;52.224;11.006;2022-10-17T00:20:06;12.67;;;0.90;;
4943;SDS011;2487;52.224;11.006;2022-10-17T00:22:33;9.60;;;0.90;;
4943;SDS011;2487;52.224;11.006;2022-10-17T00:24:58;10.97;;;0.90;;
4943;SDS011;2487;52.224;11.006;2022-10-17T00:27:24;10.97;;;0.90;;
4943;SDS011;2487;52.224;11.006;2022-10-17T00:29:50;11.27;;;0.90;;
4943;SDS011;2487;52.224;11.006;2022-10-17T00:32:17;11.07;;;0.90;;
4943;SDS011;2487;52.224;11.006;2022-10-17T00:34:44;11.57;;;0.90;;
4943;SDS011;2487;52.224;11.006;2022-10-17T00:37:10;11.67;;;0.90;;
4943;SDS011;2487;52.224;11.006;2022-10-17T00:39:36;11.67;;;0.90;;
4943;SDS011;2487;52.224;11.006;2022-10-17T00:42:02;8.43;;;0.90;;
4943;SDS011;2487;52.224;11.006;2022-10-17T00:46:55;10.17;;;0.90;;
4943;SDS011;2487;52.224;11.006;2022-10-17T00:49:26;9.00;;;0.90;;
4943;SDS011;2487;52.224;11.006;2022-10-17T00:51:56;9.53;;;0.90;;
4943;SDS011;2487;52.224;11.006;2022-10-17T00:54:26;9.00;;;0.90;;
4943;SDS011;2487;52.224;11.006;2022-10-17T00:56:57;9.00;;;0.90;;
4943;SDS011;2487;52.224;11.006;2022-10-17T00:59:43;8.87;;;0.90;;
4943;SDS011;2487;52.224;11.006;2022-10-17T01:02:14;8.67;;;0.90;;
4943;SDS011;2487;52.224;11.006;2022-10-17T01:04:42;6.80;;;0.80;;
4943;SDS011;2487;52.224;11.006;2022-10-17T01:07:11;7.80;;;0.90;;
4943;SDS011;2487;52.224;11.006;2022-10-17T01:09:37;7.40;;;0.87;;
4943;SDS011;2487;52.224;11.006;2022-10-17T01:40:06;6.40;;;0.80;;
4943;SDS011;2487;52.224;11.006;2022-10-17T01:42:41;4.80;;;0.80;;
4943;SDS011;2487;52.224;11.006;2022-10-17T01:45:21;3.97;;;0.80;;
4943;SDS011;2487;52.224;11.006;2022-10-17T01:48:12;4.60;;;0.80;;
4943;SDS011;2487;52.224;11.006;2022-10-17T01:50:42;5.33;;;0.80;;
4943;SDS011;2487;52.224;11.006;2022-10-17T01:53:14;0.50;;;0.50;;
4943;SDS011;2487;52.224;11.006;2022-10-17T01:55:44;0.50;;;0.50;;
4943;SDS011;2487;52.224;11.006;2022-10-17T01:58:13;0.50;;;0.50;;
4943;SDS011;2487;52.224;11.006;2022-10-17T02:00:41;0.50;;;0.50;;
4943;SDS011;2487;52.224;11.006;2022-10-17T02:03:08;0.50;;;0.50;;
4943;SDS011;2487;52.224;11.006;2022-10-17T02:05:39;0.50;;;0.50;;
4943;SDS011;2487;52.224;11.006;2022-10-17T02:08:11;0.50;;;0.50;;
4943;SDS011;2487;52.224;11.006;2022-10-17T02:11:00;0.50;;;0.50;;
4943;SDS011;2487;52.224;11.006;2022-10-17T02:16:21;0.50;;;0.50;;
4943;SDS011;2487;52.224;11.006;2022-10-17T02:21:54;0.50;;;0.50;;
4943;SDS011;2487;52.224;11.006;2022-10-17T02:27:25;0.50;;;0.50;;
4943;SDS011;2487;52.224;11.006;2022-10-17T02:35:39;0.50;;;0.50;;
4943;SDS011;2487;52.224;11.006;2022-10-17T02:38:12;0.50;;;0.50;;
4943;SDS011;2487;52.224;11.006;2022-10-17T02:40:42;0.50;;;0.50;;
4943;SDS011;2487;52.224;11.006;2022-10-17T02:43:10;0.50;;;0.50;;
4943;SDS011;2487;52.224;11.006;2022-10-17T02:45:40;1.47;;;1.27;;
4943;SDS011;2487;52.224;11.006;2022-10-17T02:48:27;0.97;;;0.73;;
4943;SDS011;2487;52.224;11.006;2022-10-17T02:57:11;0.70;;;0.60;;
4943;SDS011;2487;52.224;11.006;2022-10-17T02:59:45;0.50;;;0.50;;
4943;SDS011;2487;52.224;11.006;2022-10-17T03:02:11;0.63;;;0.53;;
4943;SDS011;2487;52.224;11.006;2022-10-17T03:04:38;0.80;;;0.60;;
4943;SDS011;2487;52.224;11.006;2022-10-17T03:07:08;0.60;;;0.60;;
4943;SDS011;2487;52.224;11.006;2022-10-17T03:09:33;0.60;;;0.60;;
4943;SDS011;2487;52.224;11.006;2022-10-17T03:11:59;0.60;;;0.60;;
4943;SDS011;2487;52.224;11.006;2022-10-17T03:14:25;0.60;;;0.60;;
4943;SDS011;2487;52.224;11.006;2022-10-17T03:16:50;0.60;;;0.60;;
4943;SDS011;2487;52.224;11.006;2022-10-17T03:19:17;0.60;;;0.60;;
4943;SDS011;2487;52.224;11.006;2022-10-17T03:21:43;0.60;;;0.60;;
4943;SDS011;2487;52.224;11.006;2022-10-17T03:24:08;0.60;;;0.60;;
4943;SDS011;2487;52.224;11.006;2022-10-17T03:26:35;0.60;;;0.60;;
4943;SDS011;2487;52.224;11.006;2022-10-17T03:29:01;0.60;;;0.60;;
4943;SDS011;2487;52.224;11.006;2022-10-17T03:31:28;0.60;;;0.60;;
4943;SDS011;2487;52.224;11.006;2022-10-17T03:33:56;0.60;;;0.60;;
4943;SDS011;2487;52.224;11.006;2022-10-17T03:36:22;0.60;;;0.60;;
4943;SDS011;2487;52.224;11.006;2022-10-17T03:38:51;0.60;;;0.60;;
4943;SDS011;2487;52.224;11.006;2022-10-17T03:41:17;0.60;;;0.60;;
4943;SDS011;2487;52.224;11.006;2022-10-17T03:43:43;0.60;;;0.60;;
4943;SDS011;2487;52.224;11.006;2022-10-17T03:46:09;0.60;;;0.60;;
4943;SDS011;2487;52.224;11.006;2022-10-17T03:48:35;0.60;;;0.60;;
4943;SDS011;2487;52.224;11.006;2022-10-17T03:51:06;0.60;;;0.60;;
4943;SDS011;2487;52.224;11.006;2022-10-17T03:53:39;0.60;;;0.60;;
4943;SDS011;2487;52.224;11.006;2022-10-17T03:56:08;0.60;;;0.60;;
4943;SDS011;2487;52.224;11.006;2022-10-17T03:58:38;0.60;;;0.60;;
4943;SDS011;2487;52.224;11.006;2022-10-17T04:01:06;0.50;;;0.50;;
4943;SDS011;2487;52.224;11.006;2022-10-17T04:03:33;0.60;;;0.60;;
4943;SDS011;2487;52.224;11.006;2022-10-17T04:05:59;0.50;;;0.50;;
4943;SDS011;2487;52.224;11.006;2022-10-17T04:08:27;0.50;;;0.50;;
4943;SDS011;2487;52.224;11.006;2022-10-17T04:11:10;0.50;;;0.50;;
4943;SDS011;2487;52.224;11.006;2022-10-17T04:13:41;0.50;;;0.50;;
4943;SDS011;2487;52.224;11.006;2022-10-17T04:16:09;0.50;;;0.50;;
4943;SDS011;2487;52.224;11.006;2022-10-17T04:18:51;0.50;;;0.50;;
4943;SDS011;2487;52.224;11.006;2022-10-17T04:21:21;0.50;;;0.50;;
4943;SDS011;2487;52.224;11.006;2022-10-17T04:23:51;0.50;;;0.50;;
4943;SDS011;2487;52.224;11.006;2022-10-17T04:26:29;0.50;;;0.50;;
4943;SDS011;2487;52.224;11.006;2022-10-17T04:28:54;0.50;;;0.50;;
4943;SDS011;2487;52.224;11.006;2022-10-17T04:31:21;0.50;;;0.50;;
4943;SDS011;2487;52.224;11.006;2022-10-17T04:34:09;0.50;;;0.50;;
4943;SDS011;2487;52.224;11.006;2022-10-17T04:36:35;0.50;;;0.50;;
4943;SDS011;2487;52.224;11.006;2022-10-17T04:39:01;0.50;;;0.50;;
4943;SDS011;2487;52.224;11.006;2022-10-17T04:41:29;0.50;;;0.50;;
4943;SDS011;2487;52.224;11.006;2022-10-17T04:43:55;0.50;;;0.50;;
4943;SDS011;2487;52.224;11.006;2022-10-17T04:46:21;0.50;;;0.50;;
4943;SDS011;2487;52.224;11.006;2022-10-17T04:48:47;0.50;;;0.50;;
4943;SDS011;2487;52.224;11.006;2022-10-17T04:51:15;0.50;;;0.50;;
4943;SDS011;2487;52.224;11.006;2022-10-17T04:54:09;0.50;;;0.50;;
4943;SDS011;2487;52.224;11.006;2022-10-17T04:56:37;0.50;;;0.50;;
4943;SDS011;2487;52.224;11.006;2022-10-17T04:59:03;0.50;;;0.50;;
4943;SDS011;2487;52.224;11.006;2022-10-17T05:01:30;0.50;;;0.50;;
4943;SDS011;2487;52.224;11.006;2022-10-17T05:03:56;0.50;;;0.50;;
4943;SDS011;2487;52.224;11.006;2022-10-17T05:06:23;0.50;;;0.50;;
4943;SDS011;2487;52.224;11.006;2022-10-17T05:09:12;0.50;;;0.50;;
4943;SDS011;2487;52.224;11.006;2022-10-17T05:11:38;0.50;;;0.50;;
4943;SDS011;2487;52.224;11.006;2022-10-17T05:14:07;0.50;;;0.50;;
4943;SDS011;2487;52.224;11.006;2022-10-17T05:16:34;0.50;;;0.50;;
4943;SDS011;2487;52.224;11.006;2022-10-17T05:19:00;0.50;;;0.50;;
4943;SDS011;2487;52.224;11.006;2022-10-17T05:21:32;0.50;;;0.50;;
4943;SDS011;2487;52.224;11.006;2022-10-17T05:23:58;0.50;;;0.50;;
4943;SDS011;2487;52.224;11.006;2022-10-17T05:26:24;0.50;;;0.50;;
4943;SDS011;2487;52.224;11.006;2022-10-17T05:28:51;0.50;;;0.50;;
4943;SDS011;2487;52.224;11.006;2022-10-17T05:31:19;0.50;;;0.50;;
4943;SDS011;2487;52.224;11.006;2022-10-17T05:33:45;0.50;;;0.50;;
4943;SDS011;2487;52.224;11.006;2022-10-17T05:36:12;0.50;;;0.50;;
4943;SDS011;2487;52.224;11.006;2022-10-17T05:38:38;0.50;;;0.50;;
4943;SDS011;2487;52.224;11.006;2022-10-17T05:41:04;0.50;;;0.50;;
4943;SDS011;2487;52.224;11.006;2022-10-17T05:43:31;2.20;;;0.57;;
4943;SDS011;2487;52.224;11.006;2022-10-17T05:45:58;5.57;;;0.77;;
4943;SDS011;2487;52.224;11.006;2022-10-17T05:48:27;3.47;;;0.70;;
4943;SDS011;2487;52.224;11.006;2022-10-17T05:50:58;0.60;;;0.60;;
4943;SDS011;2487;52.224;11.006;2022-10-17T05:53:24;12.57;;;0.90;;
4943;SDS011;2487;52.224;11.006;2022-10-17T05:55:55;6.70;;;0.80;;
4943;SDS011;2487;52.224;11.006;2022-10-17T05:58:25;3.57;;;0.80;;
4943;SDS011;2487;52.224;11.006;2022-10-17T06:00:58;4.67;;;0.80;;
4943;SDS011;2487;52.224;11.006;2022-10-17T06:03:26;19.40;;;0.97;;
4943;SDS011;2487;52.224;11.006;2022-10-17T06:05:52;14.27;;;0.93;;
4943;SDS011;2487;52.224;11.006;2022-10-17T06:08:19;0.50;;;0.50;;
4943;SDS011;2487;52.224;11.006;2022-10-17T06:10:48;5.50;;;0.80;;
4943;SDS011;2487;52.224;11.006;2022-10-17T06:13:15;8.07;;;0.90;;
4943;SDS011;2487;52.224;11.006;2022-10-17T06:15:44;4.40;;;0.80;;
4943;SDS011;2487;52.224;11.006;2022-10-17T06:18:10;0.80;;;0.60;;
4943;SDS011;2487;52.224;11.006;2022-10-17T06:20:36;2.30;;;0.70;;
4943;SDS011;2487;52.224;11.006;2022-10-17T06:23:02;5.63;;;0.80;;
4943;SDS011;2487;52.224;11.006;2022-10-17T06:26:06;11.87;;;0.90;;
4943;SDS011;2487;52.224;11.006;2022-10-17T06:28:33;22.33;;;1.00;;
4943;SDS011;2487;52.224;11.006;2022-10-17T06:31:02;10.60;;;0.90;;
4943;SDS011;2487;52.224;11.006;2022-10-17T06:33:32;12.53;;;0.90;;
4943;SDS011;2487;52.224;11.006;2022-10-17T06:35:58;15.47;;;0.90;;
4943;SDS011;2487;52.224;11.006;2022-10-17T06:38:25;18.60;;;0.90;;
4943;SDS011;2487;52.224;11.006;2022-10-17T06:40:53;17.10;;;0.90;;
4943;SDS011;2487;52.224;11.006;2022-10-17T06:43:21;16.13;;;0.90;;
4943;SDS011;2487;52.224;11.006;2022-10-17T06:45:56;15.87;;;0.90;;
4943;SDS011;2487;52.224;11.006;2022-10-17T06:48:36;16.37;;;0.90;;
4943;SDS011;2487;52.224;11.006;2022-10-17T06:51:33;15.07;;;0.90;;
4943;SDS011;2487;52.224;11.006;2022-10-17T06:54:00;13.93;;;0.90;;
4943;SDS011;2487;52.224;11.006;2022-10-17T06:56:34;10.70;;;0.90;;
4943;SDS011;2487;52.224;11.006;2022-10-17T06:59:18;24.90;;;1.50;;
4943;SDS011;2487;52.224;11.006;2022-10-17T07:01:57;0.60;;;0.60;;
4943;SDS011;2487;52.224;11.006;2022-10-17T07:04:24;0.50;;;0.50;;
4943;SDS011;2487;52.224;11.006;2022-10-17T07:06:49;35.67;;;1.10;;
4943;SDS011;2487;52.224;11.006;2022-10-17T07:09:19;29.57;;;1.00;;
4943;SDS011;2487;52.224;11.006;2022-10-17T07:11:45;23.20;;;1.00;;
4943;SDS011;2487;52.224;11.006;2022-10-17T07:14:14;21.73;;;1.00;;
4943;SDS011;2487;52.224;11.006;2022-10-17T07:16:41;20.00;;;1.00;;
4943;SDS011;2487;52.224;11.006;2022-10-17T07:19:18;18.90;;;1.00;;
4943;SDS011;2487;52.224;11.006;2022-10-17T07:21:44;17.07;;;0.90;;
4943;SDS011;2487;52.224;11.006;2022-10-17T07:24:10;16.10;;;0.90;;
4943;SDS011;2487;52.224;11.006;2022-10-17T07:26:39;15.73;;;0.90;;
4943;SDS011;2487;52.224;11.006;2022-10-17T07:29:05;15.43;;;0.90;;
4943;SDS011;2487;52.224;11.006;2022-10-17T07:31:50;15.93;;;0.90;;
4943;SDS011;2487;52.224;11.006;2022-10-17T07:34:17;15.00;;;0.90;;
4943;SDS011;2487;52.224;11.006;2022-10-17T07:36:43;15.10;;;0.90;;
4943;SDS011;2487;52.224;11.006;2022-10-17T07:39:10;16.00;;;0.90;;
4943;SDS011;2487;52.224;11.006;2022-10-17T07:41:37;15.73;;;0.90;;
4943;SDS011;2487;52.224;11.006;2022-10-17T07:44:03;15.13;;;0.90;;
4943;SDS011;2487;52.224;11.006;2022-10-17T07:46:33;14.57;;;0.90;;
4943;SDS011;2487;52.224;11.006;2022-10-17T07:48:59;14.43;;;0.90;;
4943;SDS011;2487;52.224;11.006;2022-10-17T07:51:25;14.33;;;0.90;;
4943;SDS011;2487;52.224;11.006;2022-10-17T07:53:52;13.93;;;0.90;;
4943;SDS011;2487;52.224;11.006;2022-10-17T07:56:17;13.80;;;0.90;;
4943;SDS011;2487;52.224;11.006;2022-10-17T07:58:43;13.77;;;0.90;;
4943;SDS011;2487;52.224;11.006;2022-10-17T08:01:09;10.57;;;0.90;;
4943;SDS011;2487;52.224;11.006;2022-10-17T08:03:39;10.00;;;0.90;;
4943;SDS011;2487;52.224;11.006;2022-10-17T08:06:06;9.83;;;0.90;;
4943;SDS011;2487;52.224;11.006;2022-10-17T08:08:31;9.67;;;0.90;;
4943;SDS011;2487;52.224;11.006;2022-10-17T08:11:02;9.60;;;0.90;;
4943;SDS011;2487;52.224;11.006;2022-10-17T08:13:29;9.63;;;0.90;;
4943;SDS011;2487;52.224;11.006;2022-10-17T08:16:02;9.57;;;0.90;;
4943;SDS011;2487;52.224;11.006;2022-10-17T08:18:29;9.43;;;0.90;;
4943;SDS011;2487;52.224;11.006;2022-10-17T08:20:58;9.57;;;0.90;;
4943;SDS011;2487;52.224;11.006;2022-10-17T08:23:24;9.47;;;0.90;;
4943;SDS011;2487;52.224;11.006;2022-10-17T08:25:50;9.63;;;0.90;;
4943;SDS011;2487;52.224;11.006;2022-10-17T08:28:15;11.97;;;0.90;;
4943;SDS011;2487;52.224;11.006;2022-10-17T08:30:41;10.07;;;0.90;;
4943;SDS011;2487;52.224;11.006;2022-10-17T08:33:07;10.03;;;0.90;;
4943;SDS011;2487;52.224;11.006;2022-10-17T08:35:32;8.73;;;0.90;;
4943;SDS011;2487;52.224;11.006;2022-10-17T08:37:58;8.63;;;0.90;;
4943;SDS011;2487;52.224;11.006;2022-10-17T08:40:27;8.93;;;0.83;;
4943;SDS011;2487;52.224;11.006;2022-10-17T08:45:34;8.13;;;0.90;;
4943;SDS011;2487;52.224;11.006;2022-10-17T08:48:04;7.83;;;0.90;;
4943;SDS011;2487;52.224;11.006;2022-10-17T08:50:45;7.73;;;0.90;;
4943;SDS011;2487;52.224;11.006;2022-10-17T08:56:23;7.00;;;0.80;;
4943;SDS011;2487;52.224;11.006;2022-10-17T08:58:53;6.97;;;0.80;;
4943;SDS011;2487;52.224;11.006;2022-10-17T09:04:34;5.60;;;0.80;;
4943;SDS011;2487;52.224;11.006;2022-10-17T09:09:53;6.33;;;0.80;;
4943;SDS011;2487;52.224;11.006;2022-10-17T09:12:25;5.53;;;0.80;;
4943;SDS011;2487;52.224;11.006;2022-10-17T09:20:39;5.00;;;0.80;;
4943;SDS011;2487;52.224;11.006;2022-10-17T09:23:20;4.97;;;0.80;;
4943;SDS011;2487;52.224;11.006;2022-10-17T09:25:51;5.20;;;0.80;;
4943;SDS011;2487;52.224;11.006;2022-10-17T09:33:40;7.13;;;0.80;;
4943;SDS011;2487;52.224;11.006;2022-10-17T09:36:12;4.80;;;0.80;;
4943;SDS011;2487;52.224;11.006;2022-10-17T09:38:42;4.97;;;0.80;;
4943;SDS011;2487;52.224;11.006;2022-10-17T09:41:22;4.70;;;0.80;;
4943;SDS011;2487;52.224;11.006;2022-10-17T09:43:55;2.90;;;0.70;;
4943;SDS011;2487;52.224;11.006;2022-10-17T09:49:05;0.50;;;0.50;;
4943;SDS011;2487;52.224;11.006;2022-10-17T09:51:45;0.60;;;0.60;;
4943;SDS011;2487;52.224;11.006;2022-10-17T09:57:08;0.50;;;0.50;;
4943;SDS011;2487;52.224;11.006;2022-10-17T09:59:40;0.60;;;0.60;;
4943;SDS011;2487;52.224;11.006;2022-10-17T10:07:27;0.60;;;0.60;;
4943;SDS011;2487;52.224;11.006;2022-10-17T10:09:54;0.50;;;0.50;;
4943;SDS011;2487;52.224;11.006;2022-10-17T10:12:22;0.63;;;0.60;;
4943;SDS011;2487;52.224;11.006;2022-10-17T10:14:52;0.50;;;0.50;;
4943;SDS011;2487;52.224;11.006;2022-10-17T10:20:02;0.50;;;0.50;;
4943;SDS011;2487;52.224;11.006;2022-10-17T10:23:33;0.50;;;0.50;;
4943;SDS011;2487;52.224;11.006;2022-10-17T10:25:48;0.50;;;0.50;;
4943;SDS011;2487;52.224;11.006;2022-10-17T10:28:18;0.50;;;0.50;;
4943;SDS011;2487;52.224;11.006;2022-10-17T10:30:48;0.50;;;0.50;;
4943;SDS011;2487;52.224;11.006;2022-10-17T10:33:18;0.50;;;0.50;;
4943;SDS011;2487;52.224;11.006;2022-10-17T10:35:51;0.50;;;0.50;;
4943;SDS011;2487;52.224;11.006;2022-10-17T10:38:21;0.50;;;0.50;;
4943;SDS011;2487;52.224;11.006;2022-10-17T10:40:48;0.50;;;0.50;;
4943;SDS011;2487;52.224;11.006;2022-10-17T10:45:58;0.97;;;0.70;;
4943;SDS011;2487;52.224;11.006;2022-10-17T10:48:25;0.50;;;0.50;;
4943;SDS011;2487;52.224;11.006;2022-10-17T11:07:27;0.50;;;0.50;;
4943;SDS011;2487;52.224;11.006;2022-10-17T11:15:11;0.60;;;0.60;;
4943;SDS011;2487;52.224;11.006;2022-10-17T11:20:11;0.80;;;0.60;;
4943;SDS011;2487;52.224;11.006;2022-10-17T11:22:48;0.70;;;0.60;;
4943;SDS011;2487;52.224;11.006;2022-10-17T11:27:50;0.90;;;0.70;;
4943;SDS011;2487;52.224;11.006;2022-10-17T11:30:16;0.50;;;0.50;;
4943;SDS011;2487;52.224;11.006;2022-10-17T11:32:46;0.50;;;0.50;;
4943;SDS011;2487;52.224;11.006;2022-10-17T11:35:19;0.57;;;0.57;;
4943;SDS011;2487;52.224;11.006;2022-10-17T11:38:05;0.50;;;0.50;;
4943;SDS011;2487;52.224;11.006;2022-10-17T11:40:33;0.60;;;0.60;;
4943;SDS011;2487;52.224;11.006;2022-10-17T11:43:04;0.50;;;0.50;;
4943;SDS011;2487;52.224;11.006;2022-10-17T11:45:39;0.50;;;0.50;;
4943;SDS011;2487;52.224;11.006;2022-10-17T11:48:20;0.50;;;0.50;;
4943;SDS011;2487;52.224;11.006;2022-10-17T11:51:07;0.50;;;0.50;;
4943;SDS011;2487;52.224;11.006;2022-10-17T11:53:50;0.50;;;0.50;;
4943;SDS011;2487;52.224;11.006;2022-10-17T11:56:26;0.50;;;0.50;;
4943;SDS011;2487;52.224;11.006;2022-10-17T12:02:01;0.50;;;0.50;;
4943;SDS011;2487;52.224;11.006;2022-10-17T12:12:43;0.50;;;0.50;;
4943;SDS011;2487;52.224;11.006;2022-10-17T12:17:43;0.50;;;0.50;;
4943;SDS011;2487;52.224;11.006;2022-10-17T12:22:45;0.50;;;0.50;;
4943;SDS011;2487;52.224;11.006;2022-10-17T12:25:16;0.50;;;0.50;;
4943;SDS011;2487;52.224;11.006;2022-10-17T12:27:45;0.50;;;0.50;;
4943;SDS011;2487;52.224;11.006;2022-10-17T12:30:22;0.50;;;0.50;;
4943;SDS011;2487;52.224;11.006;2022-10-17T12:35:28;0.50;;;0.50;;
4943;SDS011;2487;52.224;11.006;2022-10-17T12:37:59;0.50;;;0.50;;
4943;SDS011;2487;52.224;11.006;2022-10-17T12:42:59;0.50;;;0.50;;
4943;SDS011;2487;52.224;11.006;2022-10-17T12:54:15;0.60;;;0.60;;
4943;SDS011;2487;52.224;11.006;2022-10-17T12:56:56;0.50;;;0.50;;
4943;SDS011;2487;52.224;11.006;2022-10-17T12:59:27;0.50;;;0.50;;
4943;SDS011;2487;52.224;11.006;2022-10-17T13:01:55;0.50;;;0.50;;
4943;SDS011;2487;52.224;11.006;2022-10-17T13:04:23;0.50;;;0.50;;
4943;SDS011;2487;52.224;11.006;2022-10-17T13:06:52;0.50;;;0.50;;
4943;SDS011;2487;52.224;11.006;2022-10-17T13:12:12;0.50;;;0.50;;
4943;SDS011;2487;52.224;11.006;2022-10-17T13:14:42;0.50;;;0.50;;
4943;SDS011;2487;52.224;11.006;2022-10-17T13:17:20;0.50;;;0.50;;
4943;SDS011;2487;52.224;11.006;2022-10-17T13:19:52;0.60;;;0.60;;
4943;SDS011;2487;52.224;11.006;2022-10-17T13:22:29;0.50;;;0.50;;
4943;SDS011;2487;52.224;11.006;2022-10-17T13:25:12;0.50;;;0.50;;
4943;SDS011;2487;52.224;11.006;2022-10-17T13:27:40;0.50;;;0.50;;
4943;SDS011;2487;52.224;11.006;2022-10-17T13:32:46;0.50;;;0.50;;
4943;SDS011;2487;52.224;11.006;2022-10-17T13:35:14;0.60;;;0.60;;
4943;SDS011;2487;52.224;11.006;2022-10-17T13:37:42;0.60;;;0.60;;
4943;SDS011;2487;52.224;11.006;2022-10-17T13:40:14;0.50;;;0.50;;
4943;SDS011;2487;52.224;11.006;2022-10-17T13:42:41;0.50;;;0.50;;
4943;SDS011;2487;52.224;11.006;2022-10-17T13:48:16;0.50;;;0.50;;
4943;SDS011;2487;52.224;11.006;2022-10-17T13:50:46;0.60;;;0.60;;
4943;SDS011;2487;52.224;11.006;2022-10-17T13:53:19;0.60;;;0.60;;
4943;SDS011;2487;52.224;11.006;2022-10-17T13:58:52;0.60;;;0.60;;
4943;SDS011;2487;52.224;11.006;2022-10-17T14:01:26;0.50;;;0.50;;
4943;SDS011;2487;52.224;11.006;2022-10-17T14:03:53;0.60;;;0.60;;
4943;SDS011;2487;52.224;11.006;2022-10-17T14:08:46;0.50;;;0.50;;
4943;SDS011;2487;52.224;11.006;2022-10-17T14:11:21;0.50;;;0.50;;
4943;SDS011;2487;52.224;11.006;2022-10-17T14:13:51;0.50;;;0.50;;
4943;SDS011;2487;52.224;11.006;2022-10-17T14:16:18;0.50;;;0.50;;
4943;SDS011;2487;52.224;11.006;2022-10-17T14:18:48;0.50;;;0.50;;
4943;SDS011;2487;52.224;11.006;2022-10-17T14:21:23;0.50;;;0.50;;
4943;SDS011;2487;52.224;11.006;2022-10-17T14:23:51;0.60;;;0.60;;
4943;SDS011;2487;52.224;11.006;2022-10-17T14:26:44;0.60;;;0.60;;
4943;SDS011;2487;52.224;11.006;2022-10-17T14:29:20;0.57;;;0.57;;
4943;SDS011;2487;52.224;11.006;2022-10-17T14:31:48;0.50;;;0.50;;
4943;SDS011;2487;52.224;11.006;2022-10-17T14:34:21;0.50;;;0.50;;
4943;SDS011;2487;52.224;11.006;2022-10-17T14:36:52;0.50;;;0.50;;
4943;SDS011;2487;52.224;11.006;2022-10-17T14:39:19;0.60;;;0.60;;
4943;SDS011;2487;52.224;11.006;2022-10-17T14:41:50;0.60;;;0.60;;
4943;SDS011;2487;52.224;11.006;2022-10-17T14:46:50;0.60;;;0.60;;
4943;SDS011;2487;52.224;11.006;2022-10-17T14:49:22;0.60;;;0.60;;
4943;SDS011;2487;52.224;11.006;2022-10-17T14:54:50;0.60;;;0.60;;
4943;SDS011;2487;52.224;11.006;2022-10-17T15:00:07;0.50;;;0.50;;
4943;SDS011;2487;52.224;11.006;2022-10-17T15:02:38;0.50;;;0.50;;
4943;SDS011;2487;52.224;11.006;2022-10-17T15:05:04;0.50;;;0.50;;
4943;SDS011;2487;52.224;11.006;2022-10-17T15:07:30;0.50;;;0.50;;
4943;SDS011;2487;52.224;11.006;2022-10-17T15:09:55;0.50;;;0.50;;
4943;SDS011;2487;52.224;11.006;2022-10-17T15:12:24;0.50;;;0.50;;
4943;SDS011;2487;52.224;11.006;2022-10-17T15:14:50;0.60;;;0.60;;
4943;SDS011;2487;52.224;11.006;2022-10-17T15:17:17;0.50;;;0.50;;
4943;SDS011;2487;52.224;11.006;2022-10-17T15:19:46;0.60;;;0.60;;
4943;SDS011;2487;52.224;11.006;2022-10-17T15:22:13;0.60;;;0.60;;
4943;SDS011;2487;52.224;11.006;2022-10-17T15:24:40;0.50;;;0.50;;
4943;SDS011;2487;52.224;11.006;2022-10-17T15:27:12;0.50;;;0.50;;
4943;SDS011;2487;52.224;11.006;2022-10-17T15:29:42;0.50;;;0.50;;
4943;SDS011;2487;52.224;11.006;2022-10-17T15:32:08;0.60;;;0.60;;
4943;SDS011;2487;52.224;11.006;2022-10-17T15:34:34;0.50;;;0.50;;
4943;SDS011;2487;52.224;11.006;2022-10-17T15:36:59;0.90;;;0.70;;
4943;SDS011;2487;52.224;11.006;2022-10-17T15:39:25;0.70;;;0.60;;
4943;SDS011;2487;52.224;11.006;2022-10-17T15:41:51;1.60;;;0.70;;
4943;SDS011;2487;52.224;11.006;2022-10-17T15:44:17;2.00;;;0.70;;
4943;SDS011;2487;52.224;11.006;2022-10-17T15:46:42;3.10;;;0.80;;
4943;SDS011;2487;52.224;11.006;2022-10-17T15:49:10;2.97;;;0.80;;
4943;SDS011;2487;52.224;11.006;2022-10-17T15:51:37;3.60;;;0.80;;
4943;SDS011;2487;52.224;11.006;2022-10-17T15:54:03;1.90;;;0.70;;
4943;SDS011;2487;52.224;11.006;2022-10-17T15:56:40;1.70;;;0.70;;
4943;SDS011;2487;52.224;11.006;2022-10-17T15:59:17;1.77;;;0.70;;
4943;SDS011;2487;52.224;11.006;2022-10-17T16:01:45;1.90;;;0.70;;
4943;SDS011;2487;52.224;11.006;2022-10-17T16:04:13;3.80;;;0.80;;
4943;SDS011;2487;52.224;11.006;2022-10-17T16:06:40;3.60;;;0.80;;
4943;SDS011;2487;52.224;11.006;2022-10-17T16:09:06;3.37;;;0.80;;
4943;SDS011;2487;52.224;11.006;2022-10-17T16:11:36;2.80;;;0.70;;
4943;SDS011;2487;52.224;11.006;2022-10-17T16:14:13;2.60;;;0.70;;
4943;SDS011;2487;52.224;11.006;2022-10-17T16:16:40;2.70;;;0.80;;
4943;SDS011;2487;52.224;11.006;2022-10-17T16:19:06;2.10;;;0.70;;
4943;SDS011;2487;52.224;11.006;2022-10-17T16:21:33;2.10;;;0.70;;
4943;SDS011;2487;52.224;11.006;2022-10-17T16:24:02;2.80;;;0.80;;
4943;SDS011;2487;52.224;11.006;2022-10-17T16:26:28;2.40;;;0.70;;
4943;SDS011;2487;52.224;11.006;2022-10-17T16:28:54;2.60;;;0.70;;
4943;SDS011;2487;52.224;11.006;2022-10-17T16:33:53;2.50;;;0.80;;
4943;SDS011;2487;52.224;11.006;2022-10-17T16:36:20;3.00;;;0.80;;
4943;SDS011;2487;52.224;11.006;2022-10-17T16:38:46;3.00;;;0.80;;
4943;SDS011;2487;52.224;11.006;2022-10-17T16:43:52;3.30;;;0.80;;
4943;SDS011;2487;52.224;11.006;2022-10-17T16:46:19;3.10;;;0.70;;
4943;SDS011;2487;52.224;11.006;2022-10-17T16:48:46;3.50;;;0.80;;
4943;SDS011;2487;52.224;11.006;2022-10-17T16:51:12;2.30;;;0.70;;
4943;SDS011;2487;52.224;11.006;2022-10-17T16:53:39;2.10;;;0.70;;
4943;SDS011;2487;52.224;11.006;2022-10-17T16:56:08;2.40;;;0.70;;
4943;SDS011;2487;52.224;11.006;2022-10-17T16:58:36;2.80;;;0.70;;
4943;SDS011;2487;52.224;11.006;2022-10-17T17:01:02;2.90;;;0.70;;
4943;SDS011;2487;52.224;11.006;2022-10-17T17:03:29;2.80;;;0.70;;
4943;SDS011;2487;52.224;11.006;2022-10-17T17:05:59;2.90;;;0.80;;
4943;SDS011;2487;52.224;11.006;2022-10-17T17:08:25;3.00;;;0.80;;
4943;SDS011;2487;52.224;11.006;2022-10-17T17:10:50;3.87;;;0.80;;
4943;SDS011;2487;52.224;11.006;2022-10-17T17:13:18;4.10;;;0.80;;
4943;SDS011;2487;52.224;11.006;2022-10-17T17:15:44;3.13;;;0.80;;
4943;SDS011;2487;52.224;11.006;2022-10-17T17:18:10;3.50;;;0.80;;
4943;SDS011;2487;52.224;11.006;2022-10-17T17:20:38;2.20;;;0.70;;
4943;SDS011;2487;52.224;11.006;2022-10-17T17:23:06;3.00;;;0.80;;
4943;SDS011;2487;52.224;11.006;2022-10-17T17:25:34;2.70;;;0.70;;
4943;SDS011;2487;52.224;11.006;2022-10-17T17:28:02;2.50;;;0.77;;
4943;SDS011;2487;52.224;11.006;2022-10-17T17:30:27;4.30;;;0.80;;
4943;SDS011;2487;52.224;11.006;2022-10-17T17:32:54;4.40;;;0.80;;
4943;SDS011;2487;52.224;11.006;2022-10-17T17:35:20;2.63;;;0.80;;
4943;SDS011;2487;52.224;11.006;2022-10-17T17:37:46;1.70;;;1.23;;
4943;SDS011;2487;52.224;11.006;2022-10-17T17:40:31;1.93;;;0.70;;
4943;SDS011;2487;52.224;11.006;2022-10-17T17:42:59;1.90;;;0.70;;
4943;SDS011;2487;52.224;11.006;2022-10-17T17:45:25;1.70;;;0.70;;
4943;SDS011;2487;52.224;11.006;2022-10-17T17:47:50;1.50;;;0.70;;
4943;SDS011;2487;52.224;11.006;2022-10-17T17:50:18;1.40;;;0.70;;
4943;SDS011;2487;52.224;11.006;2022-10-17T17:52:43;1.30;;;0.70;;
4943;SDS011;2487;52.224;11.006;2022-10-17T17:55:11;1.30;;;0.70;;
4943;SDS011;2487;52.224;11.006;2022-10-17T17:57:37;4.30;;;0.80;;
4943;SDS011;2487;52.224;11.006;2022-10-17T18:00:03;27.03;;;1.00;;
4943;SDS011;2487;52.224;11.006;2022-10-17T18:02:29;0.70;;;0.60;;
4943;SDS011;2487;52.224;11.006;2022-10-17T18:04:55;0.50;;;0.50;;
4943;SDS011;2487;52.224;11.006;2022-10-17T18:07:21;0.50;;;0.50;;
4943;SDS011;2487;52.224;11.006;2022-10-17T18:09:47;0.50;;;0.50;;